sensor_id;sensor_type;location;lat;lon;timestamp;pressure;altitude;pressure_sealevel;temperature;humidity
42111;BME280;27766;52.174;5.456;2023-04-01T00:01:52;98911.50;;;9.94;100.00
42111;BME280;27766;52.174;5.456;2023-04-01T00:04:19;98906.28;;;9.98;100.00
42111;BME280;27766;52.174;5.456;2023-04-01T00:06:47;98905.53;;;9.92;100.00
42111;BME280;27766;52.174;5.456;2023-04-01T00:09:14;98908.06;;;9.95;100.00
42111;BME280;27766;52.174;5.456;2023-04-01T00:11:41;98911.44;;;10.00;100.00
42111;BME280;27766;52.174;5.456;2023-04-01T00:14:09;98906.34;;;9.94;100.00
42111;BME280;27766;52.174;5.456;2023-04-01T00:16:37;98913.19;;;9.96;100.00
42111;BME280;27766;52.174;5.456;2023-04-01T00:19:05;98913.19;;;10.00;100.00
42111;BME280;27766;52.174;5.456;2023-04-01T00:21:33;98919.16;;;10.03;100.00
42111;BME280;27766;52.174;5.456;2023-04-01T00:24:00;98921.72;;;10.08;100.00
42111;BME280;27766;52.174;5.456;2023-04-01T00:26:27;98921.72;;;10.08;100.00
42111;BME280;27766;52.174;5.456;2023-04-01T00:28:54;98926.06;;;10.04;100.00
42111;BME280;27766;52.174;5.456;2023-04-01T00:31:22;98920.06;;;10.01;100.00
42111;BME280;27766;52.174;5.456;2023-04-01T00:33:49;98920.06;;;10.01;100.00
42111;BME280;27766;52.174;5.456;2023-04-01T00:36:18;98926.03;;;10.07;100.00
42111;BME280;27766;52.174;5.456;2023-04-01T00:38:46;98920.03;;;10.04;100.00
42111;BME280;27766;52.174;5.456;2023-04-01T00:41:15;98916.56;;;10.05;100.00
42111;BME280;27766;52.174;5.456;2023-04-01T00:43:45;98923.44;;;10.06;100.00
42111;BME280;27766;52.174;5.456;2023-04-01T00:46:12;98923.44;;;10.09;100.00
42111;BME280;27766;52.174;5.456;2023-04-01T00:48:44;98918.31;;;10.03;100.00
42111;BME280;27766;52.174;5.456;2023-04-01T00:51:24;98920.94;;;10.00;100.00
42111;BME280;27766;52.174;5.456;2023-04-01T00:53:54;98937.41;;;9.91;100.00
42111;BME280;27766;52.174;5.456;2023-04-01T00:56:25;98933.09;;;9.90;100.00
42111;BME280;27766;52.174;5.456;2023-04-01T00:58:57;98931.41;;;9.86;100.00
42111;BME280;27766;52.174;5.456;2023-04-01T01:01:25;98940.88;;;9.88;100.00
42111;BME280;27766;52.174;5.456;2023-04-01T01:03:53;98932.28;;;9.86;100.00
42111;BME280;27766;52.174;5.456;2023-04-01T01:09:12;98940.06;;;9.78;100.00
42111;BME280;27766;52.174;5.456;2023-04-01T01:11:50;98945.25;;;9.80;100.00
42111;BME280;27766;52.174;5.456;2023-04-01T01:23:08;98955.63;;;9.72;100.00
42111;BME280;27766;52.174;5.456;2023-04-01T01:29:06;98947.00;;;9.76;100.00
42111;BME280;27766;52.174;5.456;2023-04-01T01:34:26;98946.94;;;9.82;100.00
42111;BME280;27766;52.174;5.456;2023-04-01T01:37:04;98947.78;;;9.83;100.00
42111;BME280;27766;52.174;5.456;2023-04-01T01:39:34;98952.94;;;9.86;100.00
42111;BME280;27766;52.174;5.456;2023-04-01T01:42:06;98952.06;;;9.86;100.00
42111;BME280;27766;52.174;5.456;2023-04-01T01:44:37;98951.31;;;9.76;100.00
42111;BME280;27766;52.174;5.456;2023-04-01T01:47:05;98959.00;;;9.80;100.00
42111;BME280;27766;52.174;5.456;2023-04-01T01:49:33;98949.66;;;9.67;100.00
42111;BME280;27766;52.174;5.456;2023-04-01T01:52:02;98959.09;;;9.71;100.00
42111;BME280;27766;52.174;5.456;2023-04-01T01:54:30;98959.00;;;9.80;100.00
42111;BME280;27766;52.174;5.456;2023-04-01T01:57:06;98963.31;;;9.78;100.00
42111;BME280;27766;52.174;5.456;2023-04-01T01:59:36;98959.94;;;9.70;100.00
42111;BME280;27766;52.174;5.456;2023-04-01T02:02:06;98960.84;;;9.68;100.00
42111;BME280;27766;52.174;5.456;2023-04-01T02:04:37;98963.50;;;9.58;100.00
42111;BME280;27766;52.174;5.456;2023-04-01T02:07:20;98971.25;;;9.57;100.00
42111;BME280;27766;52.174;5.456;2023-04-01T02:09:49;98975.56;;;9.58;100.00
42111;BME280;27766;52.174;5.456;2023-04-01T02:12:18;98969.56;;;9.57;100.00
42111;BME280;27766;52.174;5.456;2023-04-01T02:14:52;98972.97;;;9.58;100.00
42111;BME280;27766;52.174;5.456;2023-04-01T02:17:20;98979.03;;;9.52;100.00
42111;BME280;27766;52.174;5.456;2023-04-01T02:19:53;98969.59;;;9.53;100.00
42111;BME280;27766;52.174;5.456;2023-04-01T02:22:28;98980.78;;;9.52;100.00
42111;BME280;27766;52.174;5.456;2023-04-01T02:25:17;98978.25;;;9.39;100.00
42111;BME280;27766;52.174;5.456;2023-04-01T02:27:45;98976.53;;;9.44;100.00
42111;BME280;27766;52.174;5.456;2023-04-01T02:30:15;98982.47;;;9.51;100.00
42111;BME280;27766;52.174;5.456;2023-04-01T02:32:42;98976.53;;;9.41;100.00
42111;BME280;27766;52.174;5.456;2023-04-01T02:35:13;98983.41;;;9.42;100.00
42111;BME280;27766;52.174;5.456;2023-04-01T02:37:41;98986.78;;;9.54;100.00
42111;BME280;27766;52.174;5.456;2023-04-01T02:40:12;98984.22;;;9.47;100.00
42111;BME280;27766;52.174;5.456;2023-04-01T02:42:40;98987.66;;;9.49;100.00
42111;BME280;27766;52.174;5.456;2023-04-01T02:45:08;98983.31;;;9.55;100.00
42111;BME280;27766;52.174;5.456;2023-04-01T02:47:36;98986.78;;;9.54;100.00
42111;BME280;27766;52.174;5.456;2023-04-01T02:50:04;98991.13;;;9.50;100.00
42111;BME280;27766;52.174;5.456;2023-04-01T02:52:31;98989.41;;;9.49;100.00
42111;BME280;27766;52.174;5.456;2023-04-01T02:54:58;98986.81;;;9.50;100.00
42111;BME280;27766;52.174;5.456;2023-04-01T02:57:25;98993.75;;;9.39;100.00
42111;BME280;27766;52.174;5.456;2023-04-01T02:59:52;98983.47;;;9.36;100.00
42111;BME280;27766;52.174;5.456;2023-04-01T03:02:20;98992.03;;;9.41;100.00
42111;BME280;27766;52.174;5.456;2023-04-01T03:04:47;98993.72;;;9.47;100.00
42111;BME280;27766;52.174;5.456;2023-04-01T03:07:14;98994.56;;;9.49;100.00
42111;BME280;27766;52.174;5.456;2023-04-01T03:09:41;98991.09;;;9.52;100.00
42111;BME280;27766;52.174;5.456;2023-04-01T03:12:08;98998.88;;;9.48;100.00
42111;BME280;27766;52.174;5.456;2023-04-01T03:14:36;99004.03;;;9.47;100.00
42111;BME280;27766;52.174;5.456;2023-04-01T03:17:03;98994.59;;;9.41;100.00
42111;BME280;27766;52.174;5.456;2023-04-01T03:19:30;99008.28;;;9.57;100.00
42111;BME280;27766;52.174;5.456;2023-04-01T03:21:57;99003.13;;;9.56;100.00
42111;BME280;27766;52.174;5.456;2023-04-01T03:24:24;99009.19;;;9.52;100.00
42111;BME280;27766;52.174;5.456;2023-04-01T03:26:51;99010.97;;;9.43;100.00
42111;BME280;27766;52.174;5.456;2023-04-01T03:29:18;99017.84;;;9.44;100.00
42111;BME280;27766;52.174;5.456;2023-04-01T03:31:45;99012.69;;;9.41;100.00
42111;BME280;27766;52.174;5.456;2023-04-01T03:34:12;99016.16;;;9.37;100.00
42111;BME280;27766;52.174;5.456;2023-04-01T03:36:40;99012.72;;;9.37;100.00
42111;BME280;27766;52.174;5.456;2023-04-01T03:39:07;99018.75;;;9.37;100.00
42111;BME280;27766;52.174;5.456;2023-04-01T03:41:36;99029.09;;;9.34;100.00
42111;BME280;27766;52.174;5.456;2023-04-01T03:44:03;99035.09;;;9.36;100.00
42111;BME280;27766;52.174;5.456;2023-04-01T03:46:30;99038.47;;;9.50;100.00
42111;BME280;27766;52.174;5.456;2023-04-01T03:48:57;99043.66;;;9.44;100.00
42111;BME280;27766;52.174;5.456;2023-04-01T03:51:24;99038.50;;;9.41;100.00
42111;BME280;27766;52.174;5.456;2023-04-01T03:53:52;99034.28;;;9.29;100.00
42111;BME280;27766;52.174;5.456;2023-04-01T03:56:19;99044.50;;;9.48;100.00
42111;BME280;27766;52.174;5.456;2023-04-01T03:58:46;99048.78;;;9.47;100.00
42111;BME280;27766;52.174;5.456;2023-04-01T04:01:19;99052.25;;;9.46;100.00
42111;BME280;27766;52.174;5.456;2023-04-01T04:03:48;99051.41;;;9.46;100.00
42111;BME280;27766;52.174;5.456;2023-04-01T04:06:18;99053.88;;;9.58;100.00
42111;BME280;27766;52.174;5.456;2023-04-01T04:08:45;99049.63;;;9.51;100.00
42111;BME280;27766;52.174;5.456;2023-04-01T04:11:12;99052.22;;;9.49;100.00
42111;BME280;27766;52.174;5.456;2023-04-01T04:13:41;99059.13;;;9.50;100.00
42111;BME280;27766;52.174;5.456;2023-04-01T04:16:09;99068.56;;;9.53;100.00
42111;BME280;27766;52.174;5.456;2023-04-01T04:18:37;99077.16;;;9.57;100.00
42111;BME280;27766;52.174;5.456;2023-04-01T04:21:05;99071.94;;;9.63;100.00
42111;BME280;27766;52.174;5.456;2023-04-01T04:23:32;99081.41;;;9.64;100.00
42111;BME280;27766;52.174;5.456;2023-04-01T04:26:06;99081.50;;;9.48;100.00
42111;BME280;27766;52.174;5.456;2023-04-01T04:28:33;99073.78;;;9.44;100.00
42111;BME280;27766;52.174;5.456;2023-04-01T04:31:01;99085.78;;;9.57;100.00
42111;BME280;27766;52.174;5.456;2023-04-01T04:33:28;99091.88;;;9.45;100.00
42111;BME280;27766;52.174;5.456;2023-04-01T04:35:56;99095.31;;;9.41;100.00
42111;BME280;27766;52.174;5.456;2023-04-01T04:38:24;99083.28;;;9.40;100.00
42111;BME280;27766;52.174;5.456;2023-04-01T04:40:51;99101.31;;;9.48;100.00
42111;BME280;27766;52.174;5.456;2023-04-01T04:43:19;99102.97;;;9.57;100.00
42111;BME280;27766;52.174;5.456;2023-04-01T04:45:46;99100.41;;;9.57;100.00
42111;BME280;27766;52.174;5.456;2023-04-01T04:48:14;99103.88;;;9.57;100.00
42111;BME280;27766;52.174;5.456;2023-04-01T04:50:49;99115.84;;;9.63;100.00
42111;BME280;27766;52.174;5.456;2023-04-01T04:53:18;99118.47;;;9.64;100.00
42111;BME280;27766;52.174;5.456;2023-04-01T04:55:49;99124.47;;;9.62;100.00
42111;BME280;27766;52.174;5.456;2023-04-01T04:58:17;99120.16;;;9.65;100.00
42111;BME280;27766;52.174;5.456;2023-04-01T05:00:44;99133.94;;;9.66;100.00
42111;BME280;27766;52.174;5.456;2023-04-01T05:03:12;99138.25;;;9.67;100.00
42111;BME280;27766;52.174;5.456;2023-04-01T05:05:48;99143.38;;;9.70;100.00
42111;BME280;27766;52.174;5.456;2023-04-01T05:08:16;99139.09;;;9.63;100.00
42111;BME280;27766;52.174;5.456;2023-04-01T05:10:44;99142.53;;;9.70;100.00
42111;BME280;27766;52.174;5.456;2023-04-01T05:13:11;99145.13;;;9.62;100.00
42111;BME280;27766;52.174;5.456;2023-04-01T05:15:38;99149.44;;;9.69;100.00
42111;BME280;27766;52.174;5.456;2023-04-01T05:18:07;99152.78;;;9.82;100.00
42111;BME280;27766;52.174;5.456;2023-04-01T05:20:34;99163.13;;;9.82;100.00
42111;BME280;27766;52.174;5.456;2023-04-01T05:23:02;99160.59;;;9.71;100.00
42111;BME280;27766;52.174;5.456;2023-04-01T05:25:29;99163.16;;;9.76;100.00
42111;BME280;27766;52.174;5.456;2023-04-01T05:27:57;99170.91;;;9.76;100.00
42111;BME280;27766;52.174;5.456;2023-04-01T05:30:24;99173.44;;;9.85;100.00
42111;BME280;27766;52.174;5.456;2023-04-01T05:32:51;99173.47;;;9.84;100.00
42111;BME280;27766;52.174;5.456;2023-04-01T05:35:18;99179.50;;;9.79;100.00
42111;BME280;27766;52.174;5.456;2023-04-01T05:37:46;99189.00;;;9.79;100.00
42111;BME280;27766;52.174;5.456;2023-04-01T05:40:13;99190.72;;;9.80;100.00
42111;BME280;27766;52.174;5.456;2023-04-01T05:42:40;99181.28;;;9.73;100.00
42111;BME280;27766;52.174;5.456;2023-04-01T05:45:07;99190.72;;;9.74;100.00
42111;BME280;27766;52.174;5.456;2023-04-01T05:47:36;99201.03;;;9.78;100.00
42111;BME280;27766;52.174;5.456;2023-04-01T05:50:03;99194.22;;;9.62;100.00
42111;BME280;27766;52.174;5.456;2023-04-01T05:52:31;99193.38;;;9.60;100.00
42111;BME280;27766;52.174;5.456;2023-04-01T05:54:58;99203.72;;;9.57;100.00
42111;BME280;27766;52.174;5.456;2023-04-01T05:57:27;99210.59;;;9.55;100.00
42111;BME280;27766;52.174;5.456;2023-04-01T05:59:54;99208.03;;;9.53;100.00
42111;BME280;27766;52.174;5.456;2023-04-01T06:02:24;99216.63;;;9.60;100.00
42111;BME280;27766;52.174;5.456;2023-04-01T06:05:11;99206.31;;;9.57;100.00
42111;BME280;27766;52.174;5.456;2023-04-01T06:07:38;99216.59;;;9.66;100.00
42111;BME280;27766;52.174;5.456;2023-04-01T06:10:16;99227.78;;;9.65;100.00
42111;BME280;27766;52.174;5.456;2023-04-01T06:15:25;99230.44;;;9.57;100.00
42111;BME280;27766;52.174;5.456;2023-04-01T06:26:46;99245.88;;;9.62;100.00
42111;BME280;27766;52.174;5.456;2023-04-01T06:35:04;99257.03;;;9.73;100.00
42111;BME280;27766;52.174;5.456;2023-04-01T06:37:54;99262.19;;;9.82;100.00
42111;BME280;27766;52.174;5.456;2023-04-01T06:48:56;99281.97;;;9.88;100.00
42111;BME280;27766;52.174;5.456;2023-04-01T06:51:38;99283.69;;;9.89;100.00
42111;BME280;27766;52.174;5.456;2023-04-01T06:54:32;99293.19;;;9.82;100.00
42111;BME280;27766;52.174;5.456;2023-04-01T06:57:05;99291.44;;;9.91;100.00
42111;BME280;27766;52.174;5.456;2023-04-01T06:59:37;99302.66;;;9.90;100.00
42111;BME280;27766;52.174;5.456;2023-04-01T07:02:41;99308.66;;;9.93;100.00
42111;BME280;27766;52.174;5.456;2023-04-01T07:05:11;99308.66;;;9.93;100.00
42111;BME280;27766;52.174;5.456;2023-04-01T07:07:42;99308.66;;;9.89;100.00
42111;BME280;27766;52.174;5.456;2023-04-01T07:10:23;99310.44;;;9.84;100.00
42111;BME280;27766;52.174;5.456;2023-04-01T07:12:55;99320.75;;;9.84;100.00
42111;BME280;27766;52.174;5.456;2023-04-01T07:15:28;99328.50;;;9.80;100.00
42111;BME280;27766;52.174;5.456;2023-04-01T07:18:25;99329.38;;;9.78;100.00
42111;BME280;27766;52.174;5.456;2023-04-01T07:20:55;99340.56;;;9.86;100.00
42111;BME280;27766;52.174;5.456;2023-04-01T07:23:27;99338.84;;;9.88;100.00
42111;BME280;27766;52.174;5.456;2023-04-01T07:26:00;99345.72;;;9.88;100.00
42111;BME280;27766;52.174;5.456;2023-04-01T07:28:30;99350.03;;;9.92;100.00
42111;BME280;27766;52.174;5.456;2023-04-01T07:34:14;99356.00;;;10.05;100.00
42111;BME280;27766;52.174;5.456;2023-04-01T07:37:10;99363.72;;;10.09;100.00
42111;BME280;27766;52.174;5.456;2023-04-01T07:42:24;99367.19;;;10.02;100.00
42111;BME280;27766;52.174;5.456;2023-04-01T07:50:35;99387.88;;;10.14;100.00
42111;BME280;27766;52.174;5.456;2023-04-01T07:53:32;99385.31;;;10.01;100.00
42111;BME280;27766;52.174;5.456;2023-04-01T07:58:42;99400.78;;;10.14;100.00
42111;BME280;27766;52.174;5.456;2023-04-01T08:02:06;99398.25;;;10.04;100.00
42111;BME280;27766;52.174;5.456;2023-04-01T08:10:39;99414.56;;;10.18;100.00
42111;BME280;27766;52.174;5.456;2023-04-01T08:20:59;99437.00;;;10.10;100.00
42111;BME280;27766;52.174;5.456;2023-04-01T08:23:30;99443.88;;;10.12;100.00
42111;BME280;27766;52.174;5.456;2023-04-01T08:26:21;99444.72;;;10.18;100.00
42111;BME280;27766;52.174;5.456;2023-04-01T08:28:54;99449.88;;;10.18;100.00
42111;BME280;27766;52.174;5.456;2023-04-01T08:34:34;99453.34;;;10.17;100.00
42111;BME280;27766;52.174;5.456;2023-04-01T08:37:14;99459.38;;;10.19;100.00
42111;BME280;27766;52.174;5.456;2023-04-01T08:39:48;99474.88;;;10.26;100.00
42111;BME280;27766;52.174;5.456;2023-04-01T08:59:08;99492.03;;;10.58;100.00
42111;BME280;27766;52.174;5.456;2023-04-01T09:01:58;99492.97;;;10.39;100.00
42111;BME280;27766;52.174;5.456;2023-04-01T09:07:21;99509.34;;;10.45;100.00
42111;BME280;27766;52.174;5.456;2023-04-01T09:27:10;99539.44;;;10.76;100.00
42111;BME280;27766;52.174;5.456;2023-04-01T09:30:17;99540.25;;;10.84;100.00
42111;BME280;27766;52.174;5.456;2023-04-01T09:41:32;99542.66;;;11.23;100.00
42111;BME280;27766;52.174;5.456;2023-04-01T09:44:19;99546.91;;;11.41;100.00
42111;BME280;27766;52.174;5.456;2023-04-01T09:47:00;99552.97;;;11.35;100.00
42111;BME280;27766;52.174;5.456;2023-04-01T09:58:18;99557.81;;;11.85;100.00
42111;BME280;27766;52.174;5.456;2023-04-01T10:01:19;99557.78;;;11.91;100.00
42111;BME280;27766;52.174;5.456;2023-04-01T10:12:21;99582.91;;;11.83;100.00
42111;BME280;27766;52.174;5.456;2023-04-01T10:41:18;99613.41;;;11.36;100.00
42111;BME280;27766;52.174;5.456;2023-04-01T10:47:01;99617.69;;;11.46;100.00
42111;BME280;27766;52.174;5.456;2023-04-01T10:49:46;99616.78;;;11.52;100.00
42111;BME280;27766;52.174;5.456;2023-04-01T10:52:23;99618.56;;;11.44;100.00
42111;BME280;27766;52.174;5.456;2023-04-01T10:58:09;99622.88;;;11.43;100.00
42111;BME280;27766;52.174;5.456;2023-04-01T11:00:58;99617.69;;;11.43;100.00
42111;BME280;27766;52.174;5.456;2023-04-01T11:04:08;99635.00;;;11.38;100.00
42111;BME280;27766;52.174;5.456;2023-04-01T11:19:05;99651.44;;;11.29;100.00
42111;BME280;27766;52.174;5.456;2023-04-01T11:22:07;99654.03;;;11.24;100.00
42111;BME280;27766;52.174;5.456;2023-04-01T11:44:17;99693.66;;;11.53;100.00
42111;BME280;27766;52.174;5.456;2023-04-01T11:47:02;99695.38;;;11.54;100.00
42111;BME280;27766;52.174;5.456;2023-04-01T11:50:21;99691.03;;;11.59;100.00
42111;BME280;27766;52.174;5.456;2023-04-01T11:59:27;99708.31;;;11.59;100.00
42111;BME280;27766;52.174;5.456;2023-04-01T12:07:42;99713.44;;;11.72;100.00
42111;BME280;27766;52.174;5.456;2023-04-01T12:13:18;99719.53;;;11.57;100.00
42111;BME280;27766;52.174;5.456;2023-04-01T12:16:15;99720.44;;;11.50;100.00
42111;BME280;27766;52.174;5.456;2023-04-01T12:35:23;99742.84;;;11.57;100.00
42111;BME280;27766;52.174;5.456;2023-04-01T12:38:07;99746.28;;;11.70;100.00
42111;BME280;27766;52.174;5.456;2023-04-01T12:40:46;99752.31;;;11.69;100.00
42111;BME280;27766;52.174;5.456;2023-04-01T12:44:04;99752.31;;;11.72;100.00
42111;BME280;27766;52.174;5.456;2023-04-01T13:20:19;99798.97;;;11.65;100.00
42111;BME280;27766;52.174;5.456;2023-04-01T13:25:39;99810.28;;;11.44;100.00
42111;BME280;27766;52.174;5.456;2023-04-01T13:30:46;99818.94;;;11.24;100.00
42111;BME280;27766;52.174;5.456;2023-04-01T13:33:24;99806.88;;;11.00;100.00
42111;BME280;27766;52.174;5.456;2023-04-01T13:38:59;99812.91;;;11.09;100.00
42111;BME280;27766;52.174;5.456;2023-04-01T13:41:46;99827.56;;;11.23;100.00
42111;BME280;27766;52.174;5.456;2023-04-01T13:49:57;99825.00;;;11.24;100.00
42111;BME280;27766;52.174;5.456;2023-04-01T14:03:55;99862.09;;;11.25;100.00
42111;BME280;27766;52.174;5.456;2023-04-01T14:06:53;99856.91;;;11.16;100.00
42111;BME280;27766;52.174;5.456;2023-04-01T14:09:36;99865.56;;;11.30;100.00
42111;BME280;27766;52.174;5.456;2023-04-01T14:20:39;99897.50;;;11.04;100.00
42111;BME280;27766;52.174;5.456;2023-04-01T14:23:20;99899.22;;;11.07;100.00
42111;BME280;27766;52.174;5.456;2023-04-01T14:40:22;99932.03;;;10.96;100.00
42111;BME280;27766;52.174;5.456;2023-04-01T14:43:10;99932.91;;;11.05;100.00
42111;BME280;27766;52.174;5.456;2023-04-01T14:48:51;99934.59;;;11.00;100.00
42111;BME280;27766;52.174;5.456;2023-04-01T14:51:31;99938.94;;;11.06;100.00
42111;BME280;27766;52.174;5.456;2023-04-01T14:56:40;99958.78;;;11.08;100.00
42111;BME280;27766;52.174;5.456;2023-04-01T14:59:17;99953.59;;;10.98;100.00
42111;BME280;27766;52.174;5.456;2023-04-01T15:02:14;99970.88;;;11.20;100.00
42111;BME280;27766;52.174;5.456;2023-04-01T15:04:57;99973.47;;;11.13;100.00
42111;BME280;27766;52.174;5.456;2023-04-01T15:07:57;99970.88;;;11.14;100.00
42111;BME280;27766;52.174;5.456;2023-04-01T15:10:44;99980.41;;;11.18;100.00
42111;BME280;27766;52.174;5.456;2023-04-01T15:24:00;100018.38;;;11.12;100.00
42111;BME280;27766;52.174;5.456;2023-04-01T15:34:54;100032.16;;;10.98;100.00
42111;BME280;27766;52.174;5.456;2023-04-01T15:40:26;100041.63;;;11.01;100.00
42111;BME280;27766;52.174;5.456;2023-04-01T15:43:10;100048.53;;;11.00;100.00
42111;BME280;27766;52.174;5.456;2023-04-01T15:45:49;100054.53;;;10.88;100.00
42111;BME280;27766;52.174;5.456;2023-04-01T16:02:43;100091.50;;;10.61;100.00
42111;BME280;27766;52.174;5.456;2023-04-01T16:13:51;100125.94;;;10.52;100.00
42111;BME280;27766;52.174;5.456;2023-04-01T16:16:48;100117.31;;;10.55;100.00
42111;BME280;27766;52.174;5.456;2023-04-01T16:19:36;100129.41;;;10.56;100.00
42111;BME280;27766;52.174;5.456;2023-04-01T16:27:18;100148.34;;;10.49;100.00
42111;BME280;27766;52.174;5.456;2023-04-01T16:32:43;100152.50;;;10.36;100.00
42111;BME280;27766;52.174;5.456;2023-04-01T16:35:23;100160.19;;;10.25;100.00
42111;BME280;27766;52.174;5.456;2023-04-01T16:40:47;100171.41;;;10.27;100.00
42111;BME280;27766;52.174;5.456;2023-04-01T16:43:37;100177.50;;;10.32;100.00
42111;BME280;27766;52.174;5.456;2023-04-01T16:46:26;100174.81;;;10.18;100.00
42111;BME280;27766;52.174;5.456;2023-04-01T17:10:25;100241.00;;;10.01;100.00
42111;BME280;27766;52.174;5.456;2023-04-01T17:21:16;100263.47;;;10.09;100.00
42111;BME280;27766;52.174;5.456;2023-04-01T17:23:47;100282.38;;;10.02;100.00
42111;BME280;27766;52.174;5.456;2023-04-01T17:28:58;100278.75;;;9.85;100.00
42111;BME280;27766;52.174;5.456;2023-04-01T17:31:48;100294.25;;;9.85;100.00
42111;BME280;27766;52.174;5.456;2023-04-01T17:42:35;100318.44;;;9.93;100.00
42111;BME280;27766;52.174;5.456;2023-04-01T17:45:28;100319.34;;;9.95;100.00
42111;BME280;27766;52.174;5.456;2023-04-01T17:53:51;100350.97;;;9.75;100.00
42111;BME280;27766;52.174;5.456;2023-04-01T17:56:47;100363.84;;;9.74;100.00
42111;BME280;27766;52.174;5.456;2023-04-01T17:59:37;100366.50;;;9.78;100.00
42111;BME280;27766;52.174;5.456;2023-04-01T18:08:12;100390.44;;;9.65;100.00
42111;BME280;27766;52.174;5.456;2023-04-01T18:11:02;100394.63;;;9.57;100.00
42111;BME280;27766;52.174;5.456;2023-04-01T18:22:21;100422.97;;;9.50;100.00
42111;BME280;27766;52.174;5.456;2023-04-01T18:27:47;100436.63;;;9.43;100.00
42111;BME280;27766;52.174;5.456;2023-04-01T18:30:26;100448.81;;;9.52;100.00
42111;BME280;27766;52.174;5.456;2023-04-01T18:35:53;100443.44;;;9.38;100.00
42111;BME280;27766;52.174;5.456;2023-04-01T18:38:33;100451.22;;;9.40;100.00
42111;BME280;27766;52.174;5.456;2023-04-01T18:41:16;100468.53;;;9.45;100.00
42111;BME280;27766;52.174;5.456;2023-04-01T18:52:44;100501.19;;;9.42;100.00
42111;BME280;27766;52.174;5.456;2023-04-01T18:57:51;100508.91;;;9.40;100.00
42111;BME280;27766;52.174;5.456;2023-04-01T19:00:32;100511.34;;;9.32;100.00
42111;BME280;27766;52.174;5.456;2023-04-01T19:03:11;100530.34;;;9.36;100.00
42111;BME280;27766;52.174;5.456;2023-04-01T19:05:46;100530.38;;;9.38;100.00
42111;BME280;27766;52.174;5.456;2023-04-01T19:08:34;100533.03;;;9.42;100.00
42111;BME280;27766;52.174;5.456;2023-04-01T19:14:19;100547.44;;;9.28;100.00
42111;BME280;27766;52.174;5.456;2023-04-01T19:17:04;100553.22;;;9.16;100.00
42111;BME280;27766;52.174;5.456;2023-04-01T19:27:53;100575.66;;;9.18;100.00
42111;BME280;27766;52.174;5.456;2023-04-01T19:30:45;100586.94;;;9.24;100.00
42111;BME280;27766;52.174;5.456;2023-04-01T19:50:38;100625.09;;;8.96;100.00
42111;BME280;27766;52.174;5.456;2023-04-01T19:53:38;100641.31;;;8.89;100.00
42111;BME280;27766;52.174;5.456;2023-04-01T19:59:11;100653.13;;;8.79;100.00
42111;BME280;27766;52.174;5.456;2023-04-01T20:01:56;100661.50;;;8.68;100.00
42111;BME280;27766;52.174;5.456;2023-04-01T20:04:35;100663.38;;;8.76;100.00
42111;BME280;27766;52.174;5.456;2023-04-01T20:07:17;100669.47;;;8.78;100.00
42111;BME280;27766;52.174;5.456;2023-04-01T20:12:49;100677.22;;;8.79;100.00
42111;BME280;27766;52.174;5.456;2023-04-01T20:17:56;100688.09;;;8.66;100.00
42111;BME280;27766;52.174;5.456;2023-04-01T20:20:27;100695.75;;;8.61;100.00
42111;BME280;27766;52.174;5.456;2023-04-01T20:25:32;100704.97;;;8.51;100.00
42111;BME280;27766;52.174;5.456;2023-04-01T20:28:28;100719.06;;;8.66;100.00
42111;BME280;27766;52.174;5.456;2023-04-01T20:31:23;100723.97;;;8.55;100.00
42111;BME280;27766;52.174;5.456;2023-04-01T20:36:46;100740.44;;;8.60;100.00
42111;BME280;27766;52.174;5.456;2023-04-01T20:52:52;100771.75;;;8.40;100.00
42111;BME280;27766;52.174;5.456;2023-04-01T20:55:29;100786.44;;;8.45;100.00
42111;BME280;27766;52.174;5.456;2023-04-01T20:58:43;100788.06;;;8.41;100.00
42111;BME280;27766;52.174;5.456;2023-04-01T21:04:27;100797.84;;;8.21;100.00
42111;BME280;27766;52.174;5.456;2023-04-01T21:07:28;100805.03;;;8.33;100.00
42111;BME280;27766;52.174;5.456;2023-04-01T21:15:22;100820.16;;;8.19;100.00
42111;BME280;27766;52.174;5.456;2023-04-01T21:21:16;100824.78;;;8.00;100.00
42111;BME280;27766;52.174;5.456;2023-04-01T21:24:01;100842.28;;;8.11;100.00
42111;BME280;27766;52.174;5.456;2023-04-01T21:29:50;100848.81;;;7.99;100.00
42111;BME280;27766;52.174;5.456;2023-04-01T21:41:28;100874.53;;;7.96;100.00
42111;BME280;27766;52.174;5.456;2023-04-01T21:44:34;100883.22;;;8.00;100.00
42111;BME280;27766;52.174;5.456;2023-04-01T21:47:14;100889.13;;;7.97;100.00
42111;BME280;27766;52.174;5.456;2023-04-01T21:49:53;100893.16;;;7.87;100.00
42111;BME280;27766;52.174;5.456;2023-04-01T21:52:34;100901.69;;;7.86;100.00
42111;BME280;27766;52.174;5.456;2023-04-01T22:00:32;100911.19;;;7.87;100.00
42111;BME280;27766;52.174;5.456;2023-04-01T22:17:23;100943.22;;;7.67;100.00
42111;BME280;27766;52.174;5.456;2023-04-01T22:25:27;100970.91;;;7.47;100.00
42111;BME280;27766;52.174;5.456;2023-04-01T22:28:10;100967.47;;;7.46;100.00
42111;BME280;27766;52.174;5.456;2023-04-01T22:30:43;100959.56;;;7.41;100.00
42111;BME280;27766;52.174;5.456;2023-04-01T22:36:40;100976.81;;;7.44;100.00
42111;BME280;27766;52.174;5.456;2023-04-01T22:39:39;100978.31;;;7.37;100.00
42111;BME280;27766;52.174;5.456;2023-04-01T22:45:33;101004.00;;;7.36;100.00
42111;BME280;27766;52.174;5.456;2023-04-01T22:48:06;101002.06;;;7.28;100.00
42111;BME280;27766;52.174;5.456;2023-04-01T22:54:02;101003.53;;;7.22;100.00
42111;BME280;27766;52.174;5.456;2023-04-01T22:56:46;101009.91;;;7.32;100.00
42111;BME280;27766;52.174;5.456;2023-04-01T22:59:35;101024.47;;;7.31;100.00
42111;BME280;27766;52.174;5.456;2023-04-01T23:02:25;101016.00;;;7.09;100.00
42111;BME280;27766;52.174;5.456;2023-04-01T23:05:00;101029.44;;;7.26;100.00
42111;BME280;27766;52.174;5.456;2023-04-01T23:10:23;101035.69;;;7.33;100.00
42111;BME280;27766;52.174;5.456;2023-04-01T23:12:55;101027.69;;;7.25;100.00